Time;durP1;ratioP1;P1;durP2;ratioP2;P2;SDS_P1;SDS_P2;PMS_P1;PMS_P2;Temp;Humidity;BMP_temperature;BMP_pressure;BME280_temperature;BME280_humidity;BME280_pressure;Samples;Min_cycle;Max_cycle;Signal;HPM_P1;HPM_P2
2024/03/30 05:02:10;;;;;;;1.83;1.73;;;8.10;97.30;;;;;;5288401;23;20504;-86
2024/03/30 05:04:35;;;;;;;2.10;1.70;;;8.00;97.30;;;;;;4972675;28;20433;-89
2024/03/30 05:07:01;;;;;;;6.57;3.90;;;8.00;97.30;;;;;;4965677;28;20262;-85
2024/03/30 05:09:26;;;;;;;2.30;1.83;;;8.00;97.30;;;;;;4969691;28;20206;-86
2024/03/30 05:11:52;;;;;;;2.53;2.33;;;8.00;97.30;;;;;;4961642;28;20637;-86
2024/03/30 05:14:17;;;;;;;1.43;1.40;;;8.00;97.30;;;;;;4990928;28;20182;-86
2024/03/30 05:16:45;;;;;;;4.10;1.43;;;8.00;97.30;;;;;;4959611;28;20567;-86
2024/03/30 05:20:48;;;;;;;1.90;1.80;;;8.00;97.30;;;;;;4979206;28;20213;-87
2024/03/30 05:21:56;;;;;;;2.80;2.60;;;8.00;97.30;;;;;;4978747;28;20454;-90
2024/03/30 05:24:21;;;;;;;1.77;1.67;;;8.00;97.30;;;;;;4969140;28;20500;-88
2024/03/30 05:26:47;;;;;;;3.23;2.50;;;8.10;97.30;;;;;;4960799;28;20182;-87
2024/03/30 05:29:12;;;;;;;2.90;2.70;;;8.10;97.30;;;;;;4970505;28;20533;-89
2024/03/30 05:31:38;;;;;;;1.73;1.63;;;8.10;97.30;;;;;;4972298;28;20201;-87
2024/03/30 05:34:03;;;;;;;2.33;2.13;;;8.10;97.30;;;;;;4989056;28;20648;-85
2024/03/30 05:36:29;;;;;;;2.50;2.30;;;8.10;97.30;;;;;;4960717;28;20217;-87
2024/03/30 05:38:54;;;;;;;1.27;1.17;;;8.10;97.30;;;;;;4967155;28;20548;-88
2024/03/30 05:41:20;;;;;;;1.70;1.60;;;8.10;97.30;;;;;;4953542;28;20206;-88
2024/03/30 05:43:45;;;;;;;4.30;2.93;;;8.20;97.30;;;;;;4966578;28;21046;-87
2024/03/30 05:46:21;;;;;;;1.60;1.60;;;8.20;97.30;;;;;;4949389;28;20183;-86
2024/03/30 05:48:47;;;;;;;3.47;2.67;;;8.20;97.30;;;;;;4958853;28;20273;-87
2024/03/30 05:51:12;;;;;;;3.13;1.70;;;8.20;97.30;;;;;;4956605;28;20556;-88
2024/03/30 05:53:38;;;;;;;1.40;1.30;;;8.20;97.30;;;;;;4957803;28;20189;-86
2024/03/30 05:56:06;;;;;;;1.10;1.00;;;8.20;97.30;;;;;;4957801;28;20186;-87
2024/03/30 05:58:32;;;;;;;3.00;1.70;;;8.30;97.30;;;;;;4958052;28;20456;-86
2024/03/30 06:00:57;;;;;;;3.90;2.70;;;8.30;97.30;;;;;;4957495;28;20497;-86
2024/03/30 06:03:23;;;;;;;1.40;1.30;;;8.40;97.30;;;;;;4973629;28;20205;-86
2024/03/30 06:05:49;;;;;;;1.83;1.73;;;8.40;97.30;;;;;;4957262;28;20632;-87
2024/03/30 06:08:15;;;;;;;85.73;3.10;;;8.40;97.30;;;;;;4953903;28;20302;-86
2024/03/30 06:10:40;;;;;;;2.23;2.03;;;8.50;97.30;;;;;;4957113;28;20956;-86
2024/03/30 06:13:06;;;;;;;1.57;1.20;;;8.50;97.30;;;;;;4957574;28;20208;-84
2024/03/30 06:15:31;;;;;;;1.73;1.40;;;8.60;97.30;;;;;;4957667;28;20190;-86
2024/03/30 06:17:57;;;;;;;5.47;3.40;;;8.60;97.30;;;;;;4953136;28;20182;-86
2024/03/30 06:20:23;;;;;;;7.00;2.07;;;8.60;97.30;;;;;;4953682;28;20192;-86
2024/03/30 06:22:48;;;;;;;2.03;1.93;;;8.70;97.30;;;;;;4954215;28;20426;-86
2024/03/30 06:25:14;;;;;;;1.83;1.23;;;8.80;97.30;;;;;;4958308;28;20251;-87
2024/03/30 06:27:39;;;;;;;1.67;1.57;;;8.80;97.30;;;;;;4959452;28;20191;-87
2024/03/30 06:30:06;;;;;;;1.73;1.63;;;8.90;97.30;;;;;;4953981;28;20210;-87
2024/03/30 06:32:31;;;;;;;1.40;1.30;;;8.90;97.30;;;;;;4960008;28;20220;-86
2024/03/30 06:34:57;;;;;;;2.00;1.90;;;9.00;97.30;;;;;;4952375;28;20801;-87
2024/03/30 06:37:22;;;;;;;1.20;1.10;;;9.10;97.30;;;;;;4958986;28;20283;-86
2024/03/30 06:45:16;;;;;;;10.53;1.83;;;9.30;97.30;;;;;;4981016;28;20469;-87
2024/03/30 06:47:41;;;;;;;1.57;1.43;;;9.50;97.30;;;;;;4977739;28;20991;-87
2024/03/30 06:50:07;;;;;;;5.93;2.33;;;9.60;97.30;;;;;;4960215;28;20206;-86
2024/03/30 06:52:32;;;;;;;2.77;2.30;;;9.70;97.30;;;;;;4963955;28;20202;-85
2024/03/30 06:54:58;;;;;;;1.23;1.13;;;9.80;97.30;;;;;;4960360;28;20191;-87
2024/03/30 06:57:31;;;;;;;3.10;2.90;;;9.90;97.30;;;;;;4960416;28;20752;-87
2024/03/30 06:59:56;;;;;;;3.13;1.50;;;10.00;97.30;;;;;;4960249;28;20274;-88
2024/03/30 07:02:29;;;;;;;2.90;2.50;;;10.10;97.30;;;;;;4953714;28;20557;-87
2024/03/30 07:05:10;;;;;;;11.50;4.17;;;10.30;97.30;;;;;;4957089;28;20238;-88
2024/03/30 07:08:09;;;;;;;2.63;1.53;;;10.50;97.30;;;;;;4951553;28;20807;-86
2024/03/30 07:10:39;;;;;;;6.30;3.47;;;10.60;97.30;;;;;;4953544;28;20513;-87
2024/03/30 07:13:10;;;;;;;1.83;1.73;;;10.80;97.30;;;;;;4954228;28;20419;-87
2024/03/30 07:15:39;;;;;;;1.87;1.77;;;10.80;97.30;;;;;;4961189;28;20434;-87
2024/03/30 07:18:11;;;;;;;4.63;2.23;;;11.00;97.30;;;;;;4952864;28;20482;-87
2024/03/30 07:20:48;;;;;;;4.50;4.20;;;11.10;97.30;;;;;;4952931;28;20510;-87
2024/03/30 07:23:39;;;;;;;8.83;2.30;;;11.20;97.30;;;;;;4940161;28;20952;-87
2024/03/30 07:26:40;;;;;;;5.00;3.07;;;11.50;97.30;;;;;;4942852;28;20941;-87
2024/03/30 07:29:18;;;;;;;33.70;3.83;;;11.70;97.30;;;;;;4944214;28;20812;-87
2024/03/30 07:31:43;;;;;;;2.60;2.40;;;11.90;97.30;;;;;;4973091;23;20489;-66
2024/03/30 07:34:09;;;;;;;3.63;2.43;;;12.10;97.30;;;;;;4972248;28;20798;-66
2024/03/30 07:36:35;;;;;;;9.83;3.10;;;12.30;97.30;;;;;;4954180;28;20190;-66
2024/03/30 07:39:00;;;;;;;4.07;3.10;;;12.50;97.30;;;;;;4957503;28;20190;-66
2024/03/30 07:41:26;;;;;;;1.83;1.73;;;12.70;97.30;;;;;;4957110;28;20733;-66
2024/03/30 07:43:51;;;;;;;4.93;3.10;;;12.80;97.30;;;;;;4970573;28;20194;-66
2024/03/30 07:46:17;;;;;;;2.40;2.10;;;13.00;97.30;;;;;;4975768;28;20193;-66
2024/03/30 07:48:43;;;;;;;2.20;2.07;;;13.10;97.30;;;;;;4974661;28;20647;-66
2024/03/30 07:51:08;;;;;;;15.07;3.67;;;13.30;97.30;;;;;;4961834;28;20214;-66
2024/03/30 07:53:34;;;;;;;4.17;3.37;;;13.50;97.30;;;;;;4973946;28;20422;-66
2024/03/30 07:55:59;;;;;;;6.77;3.77;;;13.70;97.30;;;;;;4961730;28;20186;-66
2024/03/30 07:58:25;;;;;;;2.20;1.67;;;13.90;97.30;;;;;;4962322;28;20264;-66
2024/03/30 08:00:50;;;;;;;2.80;2.67;;;14.10;97.30;;;;;;4969212;28;20209;-66
2024/03/30 08:03:16;;;;;;;2.47;2.27;;;14.40;97.30;;;;;;4964356;28;20201;-66
2024/03/30 08:05:54;;;;;;;2.47;2.27;;;14.50;97.30;;;;;;4972261;28;20217;-66
2024/03/30 08:08:19;;;;;;;2.67;2.47;;;14.70;97.30;;;;;;4976391;28;20661;-66
2024/03/30 08:10:45;;;;;;;5.10;4.50;;;14.90;97.30;;;;;;4953187;28;20482;-66
2024/03/30 08:13:10;;;;;;;18.40;5.10;;;15.00;97.10;;;;;;4958225;28;20174;-66
2024/03/30 08:15:39;;;;;;;13.07;4.70;;;15.30;97.20;;;;;;4959622;28;20205;-66
2024/03/30 08:18:05;;;;;;;6.40;3.53;;;15.50;97.20;;;;;;4980866;28;20179;-66
2024/03/30 08:20:31;;;;;;;13.03;3.60;;;15.60;96.20;;;;;;4958559;28;20494;-66
2024/03/30 08:22:56;;;;;;;11.30;4.40;;;15.80;94.70;;;;;;4973667;28;20417;-67
2024/03/30 08:25:22;;;;;;;17.30;4.37;;;16.00;94.60;;;;;;4984186;28;20182;-66
2024/03/30 08:27:47;;;;;;;34.27;4.40;;;16.20;93.50;;;;;;4975410;28;20186;-67
2024/03/30 08:30:13;;;;;;;60.13;6.03;;;16.40;92.40;;;;;;4979480;28;20265;-67
2024/03/30 08:32:38;;;;;;;73.57;3.50;;;16.70;92.50;;;;;;4972374;28;20225;-66
2024/03/30 08:35:04;;;;;;;11.83;3.23;;;17.00;92.80;;;;;;4977959;28;20178;-67
2024/03/30 08:37:29;;;;;;;15.53;5.70;;;17.20;88.80;;;;;;4957504;28;20262;-66
2024/03/30 08:39:55;;;;;;;15.30;6.40;;;17.40;89.30;;;;;;4969709;28;20643;-66
2024/03/30 08:42:20;;;;;;;5.63;4.60;;;17.60;87.20;;;;;;4959210;28;20221;-66
2024/03/30 08:44:47;;;;;;;18.70;5.40;;;17.80;87.10;;;;;;4972568;28;20192;-66
2024/03/30 08:47:12;;;;;;;12.93;3.33;;;18.10;84.60;;;;;;4964897;28;20210;-66
2024/03/30 08:49:38;;;;;;;15.97;4.90;;;18.20;86.00;;;;;;4977356;28;20528;-66
2024/03/30 08:52:04;;;;;;;13.77;5.00;;;18.30;84.10;;;;;;4976520;28;20204;-66
2024/03/30 08:54:29;;;;;;;20.00;6.63;;;18.40;82.20;;;;;;4979995;28;20205;-66
2024/03/30 08:56:55;;;;;;;12.57;3.00;;;18.50;82.00;;;;;;4952870;28;20194;-66
2024/03/30 08:59:20;;;;;;;26.17;4.23;;;18.60;81.20;;;;;;4969966;28;20182;-66
2024/03/30 09:01:46;;;;;;;42.40;5.47;;;18.70;81.50;;;;;;4970436;28;20490;-66
2024/03/30 09:04:11;;;;;;;21.87;4.33;;;18.90;82.20;;;;;;4970061;28;20658;-66
2024/03/30 09:06:37;;;;;;;34.27;4.70;;;19.10;82.00;;;;;;4961689;28;20175;-66
2024/03/30 09:09:02;;;;;;;19.37;4.80;;;19.30;82.80;;;;;;4952598;28;20189;-67
2024/03/30 09:11:28;;;;;;;14.87;4.83;;;19.40;82.50;;;;;;4969725;28;20218;-67
2024/03/30 09:13:53;;;;;;;24.43;6.87;;;19.60;80.90;;;;;;4970353;28;20225;-66
2024/03/30 09:16:19;;;;;;;11.40;5.47;;;19.80;82.00;;;;;;4952425;28;20233;-66
2024/03/30 09:18:44;;;;;;;15.43;6.90;;;19.90;79.90;;;;;;4970016;28;20225;-66
2024/03/30 09:21:10;;;;;;;21.63;5.93;;;20.10;78.70;;;;;;4969764;28;20199;-65
2024/03/30 09:23:35;;;;;;;33.80;4.67;;;20.20;78.30;;;;;;4969611;28;20241;-65
2024/03/30 09:26:01;;;;;;;7.80;4.10;;;20.40;77.40;;;;;;4958238;28;20662;-66
2024/03/30 09:28:27;;;;;;;6.60;4.33;;;20.50;76.50;;;;;;4973008;28;20205;-66
2024/03/30 09:30:53;;;;;;;39.47;6.63;;;20.70;77.20;;;;;;4976274;28;20301;-66
2024/03/30 09:33:18;;;;;;;16.70;5.67;;;20.80;75.00;;;;;;4969555;28;20556;-66
2024/03/30 09:35:44;;;;;;;17.60;4.83;;;20.90;74.10;;;;;;4969655;28;20232;-66
2024/03/30 09:38:09;;;;;;;10.43;5.03;;;21.00;72.90;;;;;;4969593;28;20185;-67
2024/03/30 09:40:35;;;;;;;13.60;3.40;;;21.10;70.40;;;;;;4969415;28;20289;-66
2024/03/30 09:43:01;;;;;;;13.70;5.60;;;21.20;72.90;;;;;;4964180;28;20677;-66
2024/03/30 09:45:28;;;;;;;44.00;5.30;;;21.40;73.10;;;;;;4966795;28;20420;-66
2024/03/30 09:47:58;;;;;;;23.67;5.30;;;21.50;72.20;;;;;;4952315;28;20438;-66
2024/03/30 09:50:23;;;;;;;8.30;5.10;;;21.60;72.40;;;;;;4958255;28;20464;-66
2024/03/30 09:52:51;;;;;;;16.43;5.50;;;21.70;72.50;;;;;;4942649;28;20476;-66
2024/03/30 09:55:18;;;;;;;10.80;4.00;;;21.70;71.60;;;;;;4950269;28;20751;-66
2024/03/30 09:57:48;;;;;;;13.03;4.73;;;21.70;72.20;;;;;;4969285;28;20941;-66
2024/03/30 10:00:15;;;;;;;25.83;5.17;;;21.80;70.30;;;;;;4969093;28;20426;-65
2024/03/30 10:02:42;;;;;;;18.10;4.23;;;21.90;71.60;;;;;;4971657;28;20430;-66
2024/03/30 10:05:09;;;;;;;21.67;4.50;;;22.10;71.50;;;;;;4982676;28;20602;-67
2024/03/30 10:08:08;;;;;;;13.47;6.17;;;22.10;69.00;;;;;;4969273;28;20424;-66
2024/03/30 10:10:34;;;;;;;21.10;5.80;;;22.10;69.80;;;;;;4968082;28;20477;-66
2024/03/30 10:13:14;;;;;;;14.83;4.43;;;22.30;69.10;;;;;;4957901;28;20426;-66
2024/03/30 10:15:53;;;;;;;18.93;5.60;;;22.40;69.00;;;;;;4959515;28;20183;-66
2024/03/30 10:18:19;;;;;;;5.97;3.53;;;22.40;68.50;;;;;;4951892;28;20859;-66
2024/03/30 10:20:45;;;;;;;23.53;5.70;;;22.50;67.70;;;;;;4979465;28;20540;-66
2024/03/30 10:23:11;;;;;;;25.13;5.60;;;22.50;67.10;;;;;;4978126;28;20196;-66
2024/03/30 10:25:37;;;;;;;47.47;9.13;;;22.50;67.60;;;;;;4974537;28;20186;-66
2024/03/30 10:28:04;;;;;;;13.87;5.03;;;22.50;67.10;;;;;;4973148;28;20464;-66
2024/03/30 10:30:30;;;;;;;32.60;2.60;;;22.80;68.50;;;;;;4972335;28;20473;-67
2024/03/30 10:33:01;;;;;;;16.20;5.07;;;23.00;68.20;;;;;;4987558;28;20452;-66
2024/03/30 10:35:26;;;;;;;23.13;5.80;;;23.20;67.30;;;;;;4974194;28;20185;-66
2024/03/30 10:37:52;;;;;;;6.17;3.47;;;23.30;67.70;;;;;;4955991;28;20512;-66
2024/03/30 10:40:18;;;;;;;22.53;3.90;;;23.50;69.00;;;;;;4956464;28;20197;-66
2024/03/30 10:42:43;;;;;;;17.10;4.40;;;23.60;68.00;;;;;;4968684;28;20189;-65
2024/03/30 10:45:09;;;;;;;4.47;3.23;;;23.70;66.40;;;;;;4968006;28;20185;-66
2024/03/30 10:47:36;;;;;;;65.60;5.90;;;23.70;65.70;;;;;;4965155;28;20194;-66
2024/03/30 10:50:02;;;;;;;12.07;4.53;;;23.70;67.20;;;;;;4958818;28;20219;-66
2024/03/30 10:52:28;;;;;;;25.00;5.07;;;23.80;66.00;;;;;;4977526;28;20930;-66
2024/03/30 10:54:54;;;;;;;15.70;5.40;;;24.00;65.70;;;;;;4979673;28;20430;-66
2024/03/30 10:57:24;;;;;;;14.53;4.87;;;24.10;65.90;;;;;;4978961;28;20181;-66
2024/03/30 10:59:51;;;;;;;9.53;3.13;;;24.20;64.60;;;;;;4969789;28;20471;-66
2024/03/30 11:02:18;;;;;;;11.93;5.47;;;24.30;64.10;;;;;;4973310;28;20442;-66
2024/03/30 11:04:45;;;;;;;16.43;5.40;;;24.30;65.40;;;;;;4972113;28;20433;-66
2024/03/30 11:07:13;;;;;;;11.97;4.97;;;24.40;65.00;;;;;;4984848;28;20560;-65
2024/03/30 11:09:42;;;;;;;10.33;2.70;;;24.50;64.30;;;;;;4982486;28;20460;-66
2024/03/30 11:12:12;;;;;;;23.20;3.90;;;24.30;63.40;;;;;;4981745;28;20456;-66
2024/03/30 11:14:39;;;;;;;10.27;3.47;;;24.30;64.20;;;;;;4972355;28;20434;-67
2024/03/30 11:17:44;;;;;;;17.37;5.73;;;24.30;62.10;;;;;;4971311;28;20417;-66
2024/03/30 11:20:21;;;;;;;4.13;3.10;;;24.60;64.00;;;;;;4953187;28;20429;-67
2024/03/30 11:22:57;;;;;;;29.27;5.10;;;24.90;62.50;;;;;;4979436;28;20487;-66
2024/03/30 11:25:27;;;;;;;25.00;7.77;;;25.20;63.70;;;;;;4986476;28;20475;-66
2024/03/30 11:28:07;;;;;;;23.63;6.60;;;25.40;63.70;;;;;;4982940;28;20441;-66
2024/03/30 11:30:51;;;;;;;24.13;5.20;;;25.50;64.30;;;;;;4955713;28;20893;-66
2024/03/30 11:33:26;;;;;;;15.47;5.73;;;25.70;63.40;;;;;;4971778;28;20921;-65
2024/03/30 11:36:05;;;;;;;10.63;4.97;;;25.60;61.90;;;;;;4985593;28;20426;-66
2024/03/30 11:38:32;;;;;;;11.47;4.80;;;25.50;61.90;;;;;;4962226;28;20431;-66
2024/03/30 11:41:03;;;;;;;32.17;3.87;;;25.50;61.90;;;;;;4978930;28;20969;-66
2024/03/30 11:43:48;;;;;;;53.23;3.93;;;25.60;61.70;;;;;;4970366;28;20810;-65
2024/03/30 11:46:15;;;;;;;27.03;5.10;;;25.70;62.10;;;;;;4964652;28;20484;-67
2024/03/30 11:48:41;;;;;;;10.43;5.07;;;25.90;61.10;;;;;;4953217;28;20422;-66
2024/03/30 11:51:19;;;;;;;32.57;6.90;;;26.10;62.90;;;;;;4983336;28;20469;-65
2024/03/30 11:53:45;;;;;;;21.07;6.33;;;26.10;62.10;;;;;;4981704;28;20443;-66
2024/03/30 11:56:12;;;;;;;20.00;5.20;;;26.10;61.50;;;;;;4981848;28;20980;-66
2024/03/30 11:58:40;;;;;;;4.27;3.60;;;26.20;62.40;;;;;;4981105;28;20209;-66
2024/03/30 12:01:09;;;;;;;13.03;3.53;;;26.30;62.90;;;;;;4953959;28;20469;-66
2024/03/30 12:03:35;;;;;;;10.77;3.40;;;26.30;60.50;;;;;;4979035;28;20949;-66
2024/03/30 12:06:02;;;;;;;12.90;5.43;;;26.30;61.70;;;;;;4965218;28;20465;-67
2024/03/30 12:08:30;;;;;;;18.43;4.47;;;26.40;60.80;;;;;;4957152;28;20659;-66
2024/03/30 12:10:57;;;;;;;24.07;4.67;;;26.60;62.70;;;;;;4989022;28;20567;-66
2024/03/30 12:13:24;;;;;;;13.00;4.13;;;26.60;62.70;;;;;;4957005;28;20462;-66
2024/03/30 12:15:51;;;;;;;19.37;5.30;;;26.70;62.10;;;;;;4952131;28;20533;-67
2024/03/30 12:18:20;;;;;;;8.67;4.07;;;26.50;61.50;;;;;;4947658;28;20422;-67
2024/03/30 12:20:48;;;;;;;11.33;5.27;;;26.10;61.40;;;;;;4991896;23;20504;-83
2024/03/30 12:23:15;;;;;;;13.90;3.50;;;25.60;61.80;;;;;;4974551;28;20413;-84
2024/03/30 12:25:42;;;;;;;10.47;3.90;;;25.30;61.90;;;;;;4975236;28;20416;-84
2024/03/30 12:28:08;;;;;;;9.30;4.80;;;25.20;63.40;;;;;;4974223;28;20413;-84
2024/03/30 12:30:43;;;;;;;9.90;4.37;;;25.00;63.80;;;;;;4967004;28;21227;-83
2024/03/30 12:33:10;;;;;;;22.90;4.60;;;24.80;63.80;;;;;;4955572;28;20433;-87
2024/03/30 12:35:36;;;;;;;28.07;6.77;;;24.90;66.10;;;;;;4953643;28;20422;-83
2024/03/30 12:38:03;;;;;;;33.33;5.67;;;25.10;62.70;;;;;;4949771;28;20426;-84
2024/03/30 12:40:31;;;;;;;49.47;5.10;;;25.30;63.70;;;;;;4947557;28;20782;-86
2024/03/30 12:42:58;;;;;;;16.27;5.37;;;25.40;62.30;;;;;;4953815;28;20951;-85
2024/03/30 12:45:23;;;;;;;19.63;4.73;;;25.60;63.50;;;;;;4955428;28;20433;-87
2024/03/30 12:47:49;;;;;;;14.63;5.50;;;25.70;63.70;;;;;;4955048;28;20426;-86
2024/03/30 12:50:14;;;;;;;18.70;5.90;;;25.70;63.70;;;;;;4972493;28;20214;-86
2024/03/30 12:52:40;;;;;;;14.63;5.00;;;25.50;63.60;;;;;;4954162;28;20201;-87
2024/03/30 12:55:07;;;;;;;7.90;4.67;;;25.50;64.00;;;;;;4936397;28;20222;-86
2024/03/30 12:57:33;;;;;;;33.77;3.50;;;25.30;64.00;;;;;;4943363;28;20473;-86
2024/03/30 13:00:01;;;;;;;12.40;4.73;;;25.20;65.40;;;;;;4955053;28;20456;-84
2024/03/30 13:02:26;;;;;;;18.10;5.17;;;25.10;63.70;;;;;;4968138;28;20445;-86
2024/03/30 13:04:52;;;;;;;23.77;8.27;;;25.00;63.20;;;;;;4944332;28;20461;-86
2024/03/30 13:07:17;;;;;;;31.70;4.70;;;25.00;63.90;;;;;;4936392;28;20210;-86
2024/03/30 13:09:43;;;;;;;15.90;5.40;;;25.00;63.90;;;;;;4944555;28;20297;-86
2024/03/30 13:12:09;;;;;;;8.20;2.90;;;25.00;66.80;;;;;;4954812;28;20670;-86
2024/03/30 13:14:38;;;;;;;28.10;4.47;;;24.90;66.90;;;;;;4954832;28;20178;-86
2024/03/30 13:17:05;;;;;;;46.17;5.27;;;24.80;63.20;;;;;;4955639;28;20174;-86
2024/03/30 13:19:31;;;;;;;9.40;4.03;;;24.80;63.80;;;;;;4941884;28;20503;-86
2024/03/30 13:21:57;;;;;;;16.23;5.87;;;24.80;65.70;;;;;;4939427;28;20493;-86
2024/03/30 13:24:22;;;;;;;44.40;4.80;;;24.70;65.30;;;;;;4954915;28;20330;-85
2024/03/30 13:26:48;;;;;;;9.63;3.33;;;24.70;65.30;;;;;;4946958;28;20205;-86
2024/03/30 13:29:13;;;;;;;18.00;3.40;;;24.80;66.40;;;;;;4971946;28;20171;-86
2024/03/30 13:31:39;;;;;;;7.10;3.43;;;24.80;68.50;;;;;;4946780;28;20221;-86
2024/03/30 13:34:04;;;;;;;7.93;2.90;;;24.80;66.90;;;;;;4972007;28;20175;-86
2024/03/30 13:36:30;;;;;;;25.97;5.07;;;24.80;65.30;;;;;;4940123;28;20195;-86
2024/03/30 13:38:55;;;;;;;13.93;5.63;;;24.80;65.60;;;;;;4948765;28;20628;-85
2024/03/30 13:41:21;;;;;;;23.23;6.40;;;24.80;65.30;;;;;;4954173;28;20206;-86
2024/03/30 13:43:47;;;;;;;6.03;3.03;;;24.70;64.90;;;;;;4954319;28;20186;-86
2024/03/30 13:46:13;;;;;;;14.10;4.63;;;24.80;65.30;;;;;;4954028;28;20240;-86
2024/03/30 13:48:38;;;;;;;23.30;6.23;;;24.90;64.60;;;;;;4946168;28;20426;-86
2024/03/30 13:51:04;;;;;;;13.33;6.33;;;25.00;64.80;;;;;;4964253;28;20289;-86
2024/03/30 13:53:30;;;;;;;14.80;5.43;;;25.10;65.30;;;;;;4953032;28;20182;-86
2024/03/30 13:55:55;;;;;;;14.27;4.40;;;25.20;64.30;;;;;;4968422;28;20546;-86
2024/03/30 13:58:25;;;;;;;12.43;6.03;;;25.10;64.50;;;;;;4941864;28;20202;-84
2024/03/30 14:00:52;;;;;;;30.57;4.50;;;25.10;63.00;;;;;;4961265;28;20198;-86
2024/03/30 14:03:18;;;;;;;16.80;4.53;;;25.10;64.50;;;;;;4941537;28;20431;-86
2024/03/30 14:05:44;;;;;;;8.13;3.70;;;25.10;63.40;;;;;;4951159;28;20480;-86
2024/03/30 14:08:09;;;;;;;43.47;5.43;;;25.30;61.90;;;;;;4947516;28;20182;-84
2024/03/30 14:10:35;;;;;;;11.10;3.73;;;25.50;64.20;;;;;;4946642;28;20250;-86
2024/03/30 14:13:00;;;;;;;11.73;4.87;;;25.80;64.70;;;;;;4953848;28;20229;-86
2024/03/30 14:15:25;;;;;;;32.67;3.23;;;25.90;63.30;;;;;;4947703;28;20266;-86
2024/03/30 14:17:51;;;;;;;8.53;3.90;;;26.10;63.40;;;;;;4945241;28;20190;-86
2024/03/30 14:20:17;;;;;;;12.90;5.30;;;26.20;64.70;;;;;;4948642;28;20223;-86
2024/03/30 14:22:42;;;;;;;7.37;3.20;;;26.20;62.80;;;;;;4951449;28;20206;-86
2024/03/30 14:25:08;;;;;;;10.83;4.43;;;26.10;63.10;;;;;;4943712;28;20187;-86
2024/03/30 14:27:34;;;;;;;9.30;4.60;;;25.90;63.70;;;;;;4950745;28;20214;-86
2024/03/30 14:29:59;;;;;;;11.20;3.80;;;25.70;65.00;;;;;;4963572;28;20222;-85
2024/03/30 14:32:25;;;;;;;21.93;2.93;;;25.60;65.60;;;;;;4948157;28;20178;-86
2024/03/30 14:34:51;;;;;;;11.03;4.20;;;25.50;66.20;;;;;;4944195;28;20322;-86
2024/03/30 14:37:17;;;;;;;10.77;4.37;;;25.40;65.80;;;;;;4945716;28;20682;-86
2024/03/30 14:39:42;;;;;;;3.97;3.23;;;25.40;66.90;;;;;;4951403;28;20421;-86
2024/03/30 14:42:08;;;;;;;18.23;4.17;;;25.30;65.90;;;;;;4980483;28;20182;-86
2024/03/30 14:44:34;;;;;;;30.67;5.03;;;25.20;66.70;;;;;;4969666;28;20197;-86
2024/03/30 14:47:00;;;;;;;6.77;3.83;;;25.10;67.70;;;;;;4967154;28;20186;-86
2024/03/30 14:49:26;;;;;;;13.47;4.47;;;25.00;68.70;;;;;;4972031;28;20186;-85
2024/03/30 14:51:51;;;;;;;25.50;5.47;;;24.90;70.40;;;;;;4957552;28;20473;-86
2024/03/30 14:54:17;;;;;;;12.07;4.30;;;24.70;71.30;;;;;;4957750;28;20198;-86
2024/03/30 14:56:42;;;;;;;13.97;3.40;;;24.40;71.90;;;;;;4946017;28;20182;-86
2024/03/30 14:59:08;;;;;;;4.00;2.67;;;24.20;72.90;;;;;;4948279;28;20230;-86
2024/03/30 15:01:34;;;;;;;41.77;6.17;;;24.10;73.10;;;;;;4955120;28;20317;-85
2024/03/30 15:03:59;;;;;;;25.77;4.83;;;24.00;73.70;;;;;;4954430;28;20551;-85
2024/03/30 15:06:30;;;;;;;6.50;4.57;;;23.90;74.00;;;;;;4944934;28;20183;-85
2024/03/30 15:08:55;;;;;;;7.80;4.90;;;23.70;74.20;;;;;;4955251;28;20208;-85
2024/03/30 15:11:23;;;;;;;18.93;5.67;;;23.60;74.60;;;;;;4952990;28;20461;-85
2024/03/30 15:13:49;;;;;;;10.93;4.87;;;23.50;75.30;;;;;;4950302;28;20270;-85
2024/03/30 15:16:16;;;;;;;34.57;5.77;;;23.40;74.20;;;;;;4973264;28;20410;-86
2024/03/30 15:18:42;;;;;;;9.10;3.50;;;23.30;75.20;;;;;;4955531;28;20436;-85
2024/03/30 15:21:11;;;;;;;6.03;3.33;;;23.20;75.40;;;;;;4943086;28;20528;-85
2024/03/30 15:23:39;;;;;;;16.43;4.40;;;23.10;75.30;;;;;;4956648;28;20862;-85
2024/03/30 15:26:05;;;;;;;65.30;4.30;;;22.90;75.10;;;;;;4947442;28;20421;-85
2024/03/30 15:28:30;;;;;;;18.50;5.43;;;22.90;75.70;;;;;;4958929;28;20605;-85
2024/03/30 15:33:40;;;;;;;21.43;3.73;;;22.70;75.50;;;;;;4974357;28;20233;-85
2024/03/30 15:36:06;;;;;;;14.40;5.53;;;22.60;75.80;;;;;;4956022;28;20426;-85
2024/03/30 15:38:31;;;;;;;31.20;6.43;;;22.60;76.20;;;;;;4956642;28;20210;-85
2024/03/30 15:40:59;;;;;;;33.87;4.20;;;22.50;76.30;;;;;;4956161;28;20209;-85
2024/03/30 15:43:25;;;;;;;18.30;6.60;;;22.40;76.70;;;;;;4962221;28;20580;-85
2024/03/30 15:45:59;;;;;;;32.67;4.53;;;22.30;76.60;;;;;;4972144;28;20432;-85
2024/03/30 15:48:26;;;;;;;17.57;4.43;;;22.20;77.00;;;;;;4956496;28;20239;-85
2024/03/30 15:51:02;;;;;;;11.80;5.53;;;22.10;77.30;;;;;;4955267;28;20494;-85
2024/03/30 15:53:28;;;;;;;12.50;6.40;;;22.10;77.10;;;;;;4947101;28;21007;-85
2024/03/30 15:55:54;;;;;;;10.97;5.20;;;22.00;77.10;;;;;;4972062;28;20512;-85
2024/03/30 15:58:21;;;;;;;12.03;3.77;;;22.00;77.50;;;;;;4949533;28;20983;-86
2024/03/30 16:00:49;;;;;;;13.73;6.93;;;22.00;77.40;;;;;;4956252;28;20508;-85
2024/03/30 16:03:20;;;;;;;13.03;6.40;;;22.00;77.40;;;;;;4950076;28;20414;-85
2024/03/30 16:05:46;;;;;;;22.83;11.93;;;21.90;77.50;;;;;;4949726;28;20445;-85
2024/03/30 16:08:12;;;;;;;12.33;7.07;;;21.90;77.80;;;;;;4955612;28;20425;-85
2024/03/30 16:10:38;;;;;;;19.60;7.63;;;21.80;78.00;;;;;;4949211;28;20545;-85
2024/03/30 16:13:04;;;;;;;15.10;7.50;;;21.80;78.00;;;;;;4949799;28;20569;-85
2024/03/30 16:15:30;;;;;;;9.70;4.67;;;21.70;78.20;;;;;;4949283;28;20178;-86
2024/03/30 16:17:56;;;;;;;19.40;6.03;;;21.70;78.50;;;;;;4953579;28;20422;-85
2024/03/30 16:20:22;;;;;;;34.20;8.20;;;21.60;78.70;;;;;;4961600;28;20240;-85
2024/03/30 16:22:47;;;;;;;18.67;6.77;;;21.50;79.00;;;;;;4951368;28;20474;-84
2024/03/30 16:25:13;;;;;;;27.10;11.93;;;21.50;79.10;;;;;;4958509;28;20569;-84
2024/03/30 16:27:44;;;;;;;12.33;5.87;;;21.50;79.50;;;;;;4940081;28;20218;-85
2024/03/30 16:30:10;;;;;;;16.90;5.77;;;21.40;79.10;;;;;;4941602;28;20521;-85
2024/03/30 16:32:38;;;;;;;24.97;5.60;;;21.30;79.30;;;;;;4953708;28;20944;-84
2024/03/30 16:35:06;;;;;;;6.97;3.10;;;21.30;79.10;;;;;;4976382;28;20214;-84
2024/03/30 16:37:39;;;;;;;20.53;6.33;;;21.20;79.20;;;;;;4947313;28;20489;-85
2024/03/30 16:40:08;;;;;;;16.73;5.20;;;21.20;79.60;;;;;;4952670;28;20449;-83
2024/03/30 16:42:38;;;;;;;38.00;8.23;;;21.10;80.10;;;;;;4953624;28;20424;-85
2024/03/30 16:45:10;;;;;;;14.17;4.67;;;21.00;80.60;;;;;;4949149;28;20494;-84
2024/03/30 16:47:47;;;;;;;22.87;8.80;;;20.90;81.10;;;;;;4954279;28;20469;-85
2024/03/30 16:50:21;;;;;;;13.17;4.03;;;20.90;81.50;;;;;;4969116;28;20512;-86
2024/03/30 16:52:47;;;;;;;5.23;4.97;;;20.80;82.10;;;;;;4947650;28;20427;-85
2024/03/30 16:55:13;;;;;;;33.37;5.30;;;20.70;82.30;;;;;;4954581;28;20478;-85
2024/03/30 16:57:38;;;;;;;46.57;5.27;;;20.60;82.60;;;;;;4949039;28;20221;-85
2024/03/30 17:00:05;;;;;;;10.10;4.47;;;20.50;83.10;;;;;;4953068;28;20202;-85
2024/03/30 17:02:31;;;;;;;8.33;3.70;;;20.30;83.00;;;;;;4940031;28;20179;-85
2024/03/30 17:04:57;;;;;;;17.43;5.90;;;20.20;83.10;;;;;;4971666;28;20455;-85
2024/03/30 17:07:23;;;;;;;11.57;4.97;;;20.20;83.50;;;;;;4949632;28;20461;-85
2024/03/30 17:09:48;;;;;;;28.27;8.50;;;20.10;84.10;;;;;;4959227;28;20197;-84
2024/03/30 17:12:17;;;;;;;36.40;4.50;;;20.00;84.50;;;;;;4951460;28;20603;-84
2024/03/30 17:14:43;;;;;;;10.63;7.00;;;19.90;85.10;;;;;;4956837;28;20182;-82
2024/03/30 17:17:09;;;;;;;17.33;4.63;;;19.80;85.80;;;;;;4966953;28;20471;-84
2024/03/30 17:19:37;;;;;;;17.87;4.37;;;19.60;86.30;;;;;;4960535;28;20931;-85
2024/03/30 17:22:04;;;;;;;13.33;7.30;;;19.50;87.10;;;;;;4962488;28;20878;-84
2024/03/30 17:24:30;;;;;;;15.07;4.23;;;19.40;87.10;;;;;;4959875;28;20421;-84
2024/03/30 17:26:55;;;;;;;14.03;7.07;;;19.20;87.20;;;;;;4962090;28;20473;-83
2024/03/30 17:29:22;;;;;;;26.13;4.50;;;19.10;87.50;;;;;;4957227;28;20535;-85
2024/03/30 17:31:48;;;;;;;46.10;5.83;;;19.00;87.60;;;;;;4971425;28;20226;-85
2024/03/30 17:34:13;;;;;;;37.43;6.27;;;18.90;87.60;;;;;;4960188;28;20414;-86
2024/03/30 17:36:39;;;;;;;11.13;6.13;;;18.80;87.30;;;;;;4985611;28;20216;-85
2024/03/30 17:39:05;;;;;;;15.53;6.83;;;18.80;86.90;;;;;;4962934;28;20244;-85
2024/03/30 17:41:30;;;;;;;14.13;7.33;;;18.70;87.20;;;;;;4988139;28;20198;-85
2024/03/30 17:43:56;;;;;;;15.70;7.07;;;18.60;88.30;;;;;;4963805;28;20587;-85
2024/03/30 17:46:22;;;;;;;25.03;5.53;;;18.50;89.70;;;;;;4951122;28;20188;-85
2024/03/30 17:48:49;;;;;;;36.07;8.63;;;18.40;90.60;;;;;;4960877;28;20178;-85
2024/03/30 17:51:15;;;;;;;28.80;6.90;;;18.30;89.80;;;;;;4968195;28;20472;-84